createdAt,value
2022-09-26T00:01:43.059Z,0.93
2022-09-26T00:04:32.590Z,0.90
2022-09-26T00:07:18.661Z,1.20
2022-09-26T00:10:04.554Z,1.13
2022-09-26T00:12:50.086Z,1.10
2022-09-26T00:15:35.777Z,1.15
2022-09-26T00:18:21.616Z,0.90
2022-09-26T00:21:12.984Z,1.30
2022-09-26T00:24:00.278Z,1.00
2022-09-26T00:26:45.760Z,1.10
2022-09-26T00:29:31.219Z,1.07
2022-09-26T00:32:16.768Z,1.00
2022-09-26T00:35:02.458Z,0.80
2022-09-26T00:37:48.349Z,1.10
2022-09-26T00:40:33.675Z,1.27
2022-09-26T00:43:35.995Z,1.55
2022-09-26T00:46:34.709Z,1.30
2022-09-26T00:49:42.352Z,1.20
2022-09-26T00:52:35.444Z,1.20
2022-09-26T00:55:25.526Z,1.27
2022-09-26T00:58:16.838Z,1.40
2022-09-26T01:01:02.452Z,1.00
2022-09-26T01:03:50.388Z,1.13
2022-09-26T01:06:36.321Z,1.10
2022-09-26T01:09:21.726Z,1.27
2022-09-26T01:12:08.730Z,1.00
2022-09-26T01:14:54.863Z,1.38
2022-09-26T01:17:43.334Z,0.98
2022-09-26T01:21:42.953Z,1.30
2022-09-26T01:24:53.173Z,1.02
2022-09-26T01:27:50.793Z,1.20
2022-09-26T01:30:52.387Z,0.90
2022-09-26T01:34:01.105Z,1.10
2022-09-26T01:37:14.344Z,1.17
2022-09-26T01:40:07.801Z,0.88
2022-09-26T01:43:08.350Z,1.10
2022-09-26T01:46:06.419Z,1.13
2022-09-26T01:49:01.757Z,1.05
2022-09-26T01:52:03.024Z,1.43
2022-09-26T01:54:58.354Z,1.52
2022-09-26T01:57:59.664Z,1.48
2022-09-26T02:00:49.341Z,1.25
2022-09-26T02:03:46.418Z,1.20
2022-09-26T02:06:47.682Z,1.10
2022-09-26T02:09:40.395Z,1.00
2022-09-26T02:12:36.469Z,1.38
2022-09-26T02:15:25.544Z,1.40
2022-09-26T02:18:37.837Z,1.35
2022-09-26T02:21:24.120Z,1.10
2022-09-26T02:24:09.586Z,1.13
2022-09-26T02:26:55.009Z,1.45
2022-09-26T02:29:40.606Z,1.83
2022-09-26T02:32:30.605Z,1.20
2022-09-26T02:35:35.069Z,1.20
2022-09-26T02:38:22.218Z,1.30
2022-09-26T02:41:34.318Z,1.40
2022-09-26T02:44:34.937Z,1.40
2022-09-26T02:47:47.609Z,1.15
2022-09-26T02:50:47.008Z,1.10
2022-09-26T02:53:56.393Z,1.23
2022-09-26T02:57:06.771Z,1.08
2022-09-26T03:00:03.803Z,1.10
2022-09-26T03:03:14.556Z,1.08
2022-09-26T03:06:02.881Z,1.35
2022-09-26T03:08:49.391Z,1.20
2022-09-26T03:11:35.938Z,1.20
2022-09-26T03:14:21.529Z,1.00
2022-09-26T03:17:08.292Z,1.10
2022-09-26T03:20:01.563Z,1.30
2022-09-26T03:22:47.501Z,1.17
2022-09-26T03:25:33.503Z,1.27
2022-09-26T03:28:18.952Z,1.00
2022-09-26T03:31:04.469Z,1.15
2022-09-26T03:33:49.884Z,1.02
2022-09-26T03:36:35.552Z,1.20
2022-09-26T03:39:21.229Z,1.17
2022-09-26T03:42:09.445Z,1.10
2022-09-26T03:44:55.211Z,1.45
2022-09-26T03:47:41.830Z,1.20
2022-09-26T03:50:27.641Z,0.85
2022-09-26T03:53:13.370Z,1.20
2022-09-26T03:56:11.118Z,0.85
2022-09-26T03:58:56.617Z,1.25
2022-09-26T04:01:41.847Z,1.00
2022-09-26T04:04:27.525Z,1.23
2022-09-26T04:07:12.916Z,1.15
2022-09-26T04:09:58.550Z,1.30
2022-09-26T04:12:44.491Z,1.40
2022-09-26T04:15:30.872Z,1.30
2022-09-26T04:18:16.205Z,1.10
2022-09-26T04:21:09.745Z,1.50
2022-09-26T04:23:56.396Z,1.00
2022-09-26T04:26:43.584Z,1.20
2022-09-26T04:29:29.439Z,1.48
2022-09-26T04:32:15.746Z,1.20
2022-09-26T04:35:01.497Z,0.93
2022-09-26T04:37:47.307Z,1.30
2022-09-26T04:40:33.087Z,0.97
2022-09-26T04:43:18.529Z,1.20
2022-09-26T04:46:24.514Z,1.05
2022-09-26T04:49:11.377Z,1.30
2022-09-26T04:51:56.677Z,1.60
2022-09-26T04:54:42.033Z,1.23
2022-09-26T04:57:27.629Z,1.23
2022-09-26T05:00:14.364Z,1.02
2022-09-26T05:02:59.765Z,1.08
2022-09-26T05:05:47.418Z,1.35
2022-09-26T05:08:33.215Z,1.17
2022-09-26T05:11:19.678Z,1.25
2022-09-26T05:14:05.344Z,1.55
2022-09-26T05:16:50.632Z,1.30
2022-09-26T05:19:36.421Z,1.25
2022-09-26T05:22:22.062Z,1.50
2022-09-26T05:25:26.618Z,1.25
2022-09-26T05:28:12.393Z,1.20
2022-09-26T05:30:57.874Z,1.02
2022-09-26T05:33:44.412Z,1.33
2022-09-26T05:36:30.228Z,1.10
2022-09-26T05:39:35.851Z,1.00
2022-09-26T05:42:24.512Z,1.50
2022-09-26T05:45:10.577Z,1.10
2022-09-26T05:47:56.054Z,0.90
2022-09-26T05:50:43.583Z,1.30
2022-09-26T05:53:29.828Z,1.10
2022-09-26T05:56:19.037Z,1.17
2022-09-26T05:59:05.512Z,0.95
2022-09-26T06:01:51.404Z,1.17
2022-09-26T06:04:37.281Z,1.33
2022-09-26T06:07:22.661Z,1.02
2022-09-26T06:10:08.341Z,1.13
2022-09-26T06:12:53.900Z,1.10
2022-09-26T06:15:39.879Z,0.90
2022-09-26T06:18:26.003Z,1.50
2022-09-26T06:21:13.286Z,1.42
2022-09-26T06:23:58.622Z,1.00
2022-09-26T06:26:44.456Z,1.25
2022-09-26T06:29:29.923Z,1.50
2022-09-26T06:32:15.227Z,1.13
2022-09-26T06:35:00.821Z,1.42
2022-09-26T06:37:46.441Z,1.42
2022-09-26T06:40:33.540Z,1.13
2022-09-26T06:43:19.093Z,1.35
2022-09-26T06:46:09.423Z,1.30
2022-09-26T06:48:55.187Z,1.63
2022-09-26T06:51:40.792Z,1.40
2022-09-26T06:54:26.105Z,1.10
2022-09-26T06:57:14.903Z,1.13
2022-09-26T07:00:01.426Z,1.40
2022-09-26T07:02:54.398Z,1.13
2022-09-26T07:05:39.856Z,1.20
2022-09-26T07:08:49.979Z,1.50
2022-09-26T07:11:41.982Z,1.50
2022-09-26T07:14:37.786Z,1.38
2022-09-26T07:17:23.199Z,1.27
2022-09-26T07:20:17.089Z,1.30
2022-09-26T07:23:03.515Z,1.50
2022-09-26T07:25:49.225Z,1.20
2022-09-26T07:28:34.984Z,1.20
2022-09-26T07:31:20.424Z,1.33
2022-09-26T07:34:07.550Z,1.35
2022-09-26T07:36:52.861Z,1.50
2022-09-26T07:39:38.327Z,1.10
2022-09-26T07:42:23.953Z,1.40
2022-09-26T07:45:24.800Z,1.33
2022-09-26T07:48:32.205Z,1.47
2022-09-26T07:51:17.721Z,1.33
2022-09-26T07:54:03.201Z,1.10
2022-09-26T07:56:48.488Z,1.42
2022-09-26T07:59:35.621Z,1.00
2022-09-26T08:02:23.515Z,1.58
2022-09-26T08:05:11.195Z,1.05
2022-09-26T08:07:57.260Z,1.42
2022-09-26T08:10:43.015Z,1.47
2022-09-26T08:13:30.069Z,1.17
2022-09-26T08:16:20.611Z,1.20
2022-09-26T08:19:07.800Z,1.20
2022-09-26T08:21:53.054Z,1.20
2022-09-26T08:24:38.943Z,1.17
2022-09-26T08:27:24.213Z,1.40
2022-09-26T08:30:10.514Z,1.20
2022-09-26T08:32:59.001Z,1.10
2022-09-26T08:35:45.307Z,1.00
2022-09-26T08:38:30.531Z,1.07
2022-09-26T08:41:32.575Z,1.00
2022-09-26T08:44:36.658Z,0.93
2022-09-26T08:47:45.031Z,1.30
2022-09-26T08:50:43.554Z,0.80
2022-09-26T08:53:37.327Z,0.80
2022-09-26T08:56:40.702Z,0.80
2022-09-26T08:59:41.961Z,0.60
2022-09-26T09:02:33.201Z,0.70
2022-09-26T09:05:32.826Z,1.00
2022-09-26T09:08:47.739Z,1.20
2022-09-26T09:11:51.244Z,0.87
2022-09-26T09:15:24.077Z,0.90
2022-09-26T09:18:15.801Z,0.70
2022-09-26T09:21:19.061Z,1.00
2022-09-26T09:24:11.062Z,0.63
2022-09-26T09:30:17.924Z,0.87
2022-09-26T09:33:24.509Z,0.75
2022-09-26T09:36:50.813Z,0.60
2022-09-26T09:39:40.021Z,0.60
2022-09-26T09:42:43.268Z,0.80
2022-09-26T09:45:37.176Z,0.40
2022-09-26T09:48:27.041Z,0.95
2022-09-26T09:51:33.250Z,0.68
2022-09-26T09:54:47.451Z,0.70
2022-09-26T09:57:51.445Z,1.00
2022-09-26T10:00:45.596Z,1.10
2022-09-26T10:04:05.942Z,0.57
2022-09-26T10:06:51.431Z,0.60
2022-09-26T10:09:42.339Z,0.73
2022-09-26T10:12:30.620Z,0.60
2022-09-26T10:15:21.583Z,1.13
2022-09-26T10:18:26.171Z,0.70
2022-09-26T10:21:17.696Z,0.85
2022-09-26T10:24:04.683Z,0.60
2022-09-26T10:26:50.815Z,1.07
2022-09-26T10:29:36.806Z,0.73
2022-09-26T10:32:22.006Z,0.60
2022-09-26T10:35:24.136Z,0.30
2022-09-26T10:38:24.710Z,0.63
2022-09-26T10:41:23.083Z,0.50
2022-09-26T10:44:30.396Z,0.40
2022-09-26T10:47:19.380Z,0.40
2022-09-26T10:50:11.540Z,0.40
2022-09-26T10:53:10.338Z,0.60
2022-09-26T10:56:02.639Z,0.53
2022-09-26T10:58:51.291Z,1.00
2022-09-26T11:01:43.064Z,0.55
2022-09-26T11:04:49.963Z,0.70
2022-09-26T11:07:39.601Z,0.60
2022-09-26T11:10:32.369Z,0.60
2022-09-26T11:13:23.043Z,0.40
2022-09-26T11:16:14.531Z,0.50
2022-09-26T11:19:35.441Z,0.50
2022-09-26T11:22:42.117Z,0.40
2022-09-26T11:25:32.331Z,0.50
2022-09-26T11:28:34.304Z,0.70
2022-09-26T11:31:27.678Z,0.60
2022-09-26T11:34:16.972Z,0.60
2022-09-26T11:37:14.571Z,0.70
2022-09-26T11:40:14.968Z,0.80
2022-09-26T11:43:24.326Z,0.55
2022-09-26T11:46:48.178Z,0.70
2022-09-26T11:49:51.915Z,0.75
2022-09-26T11:53:09.309Z,0.77
2022-09-26T11:56:22.801Z,0.60
2022-09-26T11:59:30.211Z,0.60
2022-09-26T12:02:47.157Z,0.63
2022-09-26T12:05:52.327Z,0.50
2022-09-26T12:08:57.904Z,0.70
2022-09-26T12:12:11.411Z,0.80
2022-09-26T12:15:23.483Z,0.85
2022-09-26T12:18:22.251Z,0.60
2022-09-26T12:21:13.441Z,0.50
2022-09-26T12:24:06.007Z,0.55
2022-09-26T12:27:01.820Z,0.63
2022-09-26T12:30:02.349Z,0.60
2022-09-26T12:33:22.524Z,0.50
2022-09-26T12:36:21.820Z,0.80
2022-09-26T12:39:44.641Z,0.60
2022-09-26T12:42:52.373Z,0.90
2022-09-26T12:45:55.352Z,0.75
2022-09-26T12:48:44.891Z,1.30
2022-09-26T12:51:47.176Z,0.50
2022-09-26T12:54:57.517Z,0.85
2022-09-26T12:57:57.087Z,0.85
2022-09-26T13:01:20.098Z,0.50
2022-09-26T13:04:31.859Z,0.90
2022-09-26T13:07:42.175Z,0.57
2022-09-26T13:10:33.366Z,0.43
2022-09-26T13:13:46.398Z,0.68
2022-09-26T13:16:57.750Z,0.70
2022-09-26T13:19:51.739Z,0.70
2022-09-26T13:22:52.545Z,0.60
2022-09-26T13:25:54.354Z,0.70
2022-09-26T13:29:15.502Z,0.80
2022-09-26T13:32:14.114Z,0.85
2022-09-26T13:35:06.293Z,0.90
2022-09-26T13:38:01.306Z,0.77
2022-09-26T13:41:01.581Z,0.70
2022-09-26T13:43:55.571Z,0.60
2022-09-26T13:47:24.085Z,0.50
2022-09-26T13:50:34.263Z,0.77
2022-09-26T13:53:28.925Z,0.63
2022-09-26T13:56:43.975Z,0.65
2022-09-26T13:59:35.970Z,0.73
2022-09-26T14:02:29.804Z,0.68
2022-09-26T14:05:18.137Z,0.67
2022-09-26T14:08:46.078Z,1.08
2022-09-26T14:11:51.856Z,0.63
2022-09-26T14:14:46.099Z,0.70
2022-09-26T14:17:43.717Z,0.98
2022-09-26T14:20:35.265Z,0.80
2022-09-26T14:23:38.486Z,0.90
2022-09-26T14:26:28.238Z,0.90
2022-09-26T14:29:29.203Z,0.80
2022-09-26T14:32:18.893Z,0.98
2022-09-26T14:35:20.304Z,0.70
2022-09-26T14:38:14.969Z,0.93
2022-09-26T14:41:00.444Z,0.63
2022-09-26T14:43:47.890Z,0.80
2022-09-26T14:46:35.776Z,0.70
2022-09-26T14:49:28.301Z,0.50
2022-09-26T14:52:20.412Z,0.50
2022-09-26T14:55:07.864Z,0.70
2022-09-26T14:58:16.415Z,0.93
2022-09-26T15:01:25.363Z,0.80
2022-09-26T15:04:29.550Z,0.80
2022-09-26T15:07:22.330Z,1.10
2022-09-26T15:10:13.810Z,0.88
2022-09-26T15:13:08.438Z,0.60
2022-09-26T15:16:13.746Z,0.70
2022-09-26T15:19:22.039Z,0.82
2022-09-26T15:22:13.680Z,0.68
2022-09-26T15:25:19.624Z,0.50
2022-09-26T15:28:05.250Z,0.50
2022-09-26T15:31:20.572Z,0.75
2022-09-26T15:34:22.904Z,0.60
2022-09-26T15:37:17.339Z,0.60
2022-09-26T15:40:24.002Z,0.63
2022-09-26T15:43:09.798Z,0.68
2022-09-26T15:46:03.477Z,0.50
2022-09-26T15:48:51.845Z,0.70
2022-09-26T15:51:39.789Z,0.60
2022-09-26T15:54:30.146Z,0.68
2022-09-26T15:57:15.774Z,0.50
2022-09-26T16:00:02.220Z,0.60
2022-09-26T16:02:48.494Z,0.52
2022-09-26T16:05:34.849Z,0.60
2022-09-26T16:08:26.779Z,0.30
2022-09-26T16:11:12.346Z,0.40
2022-09-26T16:13:58.093Z,0.40
2022-09-26T16:16:43.438Z,0.70
2022-09-26T16:19:53.444Z,0.40
2022-09-26T16:22:46.933Z,0.55
2022-09-26T16:25:53.044Z,0.82
2022-09-26T16:28:42.434Z,0.60
2022-09-26T16:31:31.655Z,0.57
2022-09-26T16:34:23.081Z,0.80
2022-09-26T16:37:17.042Z,0.47
2022-09-26T16:40:02.681Z,0.70
2022-09-26T16:42:48.080Z,0.60
2022-09-26T16:45:33.853Z,0.50
2022-09-26T16:48:51.500Z,0.63
2022-09-26T16:51:40.791Z,0.80
2022-09-26T16:54:26.324Z,0.98
2022-09-26T16:57:19.959Z,0.60
2022-09-26T17:00:34.671Z,0.53
2022-09-26T17:03:26.104Z,0.70
2022-09-26T17:06:11.417Z,0.90
2022-09-26T17:09:03.216Z,0.50
2022-09-26T17:11:53.149Z,1.10
2022-09-26T17:14:41.213Z,0.40
2022-09-26T17:17:26.838Z,0.80
2022-09-26T17:20:13.962Z,0.60
2022-09-26T17:23:11.928Z,0.80
2022-09-26T17:26:06.903Z,1.07
2022-09-26T17:28:53.280Z,1.10
2022-09-26T17:31:38.975Z,0.90
2022-09-26T17:34:28.238Z,0.77
2022-09-26T17:37:18.173Z,0.70
2022-09-26T17:40:10.227Z,0.60
2022-09-26T17:42:57.265Z,0.52
2022-09-26T17:45:49.028Z,0.88
2022-09-26T17:48:35.590Z,0.70
2022-09-26T17:51:22.165Z,0.50
2022-09-26T17:54:15.062Z,1.02
2022-09-26T17:57:00.959Z,0.60
2022-09-26T17:59:46.596Z,0.47
2022-09-26T18:02:34.636Z,0.50
2022-09-26T18:05:28.355Z,0.60
2022-09-26T18:08:29.676Z,0.50
2022-09-26T18:11:17.346Z,0.60
2022-09-26T18:14:06.133Z,0.80
2022-09-26T18:16:51.632Z,0.70
2022-09-26T18:19:38.221Z,0.50
2022-09-26T18:22:31.070Z,0.50
2022-09-26T18:25:21.706Z,0.50
2022-09-26T18:28:17.465Z,0.50
2022-09-26T18:31:03.276Z,0.70
2022-09-26T18:33:49.061Z,0.40
2022-09-26T18:36:35.118Z,0.43
2022-09-26T18:39:20.768Z,0.40
2022-09-26T18:42:09.345Z,0.63
2022-09-26T18:45:04.946Z,0.60
2022-09-26T18:47:50.295Z,0.60
2022-09-26T18:50:39.042Z,0.32
2022-09-26T18:53:32.222Z,0.90
2022-09-26T18:56:36.399Z,0.80
2022-09-26T18:59:26.739Z,0.60
2022-09-26T19:02:23.427Z,0.50
2022-09-26T19:05:15.967Z,0.40
2022-09-26T19:08:02.178Z,0.50
2022-09-26T19:10:48.975Z,0.30
2022-09-26T19:13:34.669Z,0.38
2022-09-26T19:16:21.569Z,0.45
2022-09-26T19:19:06.901Z,0.50
2022-09-26T19:21:57.100Z,0.40
2022-09-26T19:24:50.127Z,0.40
2022-09-26T19:27:46.536Z,0.40
2022-09-26T19:30:32.941Z,0.50
2022-09-26T19:33:19.152Z,0.52
2022-09-26T19:36:04.626Z,0.40
2022-09-26T19:38:50.047Z,0.80
2022-09-26T19:41:37.059Z,0.50
2022-09-26T19:44:24.936Z,0.40
2022-09-26T19:47:33.385Z,0.43
2022-09-26T19:50:22.744Z,0.35
2022-09-26T19:53:14.259Z,0.43
2022-09-26T19:56:01.047Z,0.45
2022-09-26T19:58:48.920Z,0.68
2022-09-26T20:01:34.686Z,0.40
2022-09-26T20:04:23.248Z,0.70
2022-09-26T20:07:12.237Z,0.60
2022-09-26T20:09:58.544Z,0.55
2022-09-26T20:12:45.402Z,0.70
2022-09-26T20:15:31.974Z,0.40
2022-09-26T20:18:21.666Z,0.38
2022-09-26T20:21:09.681Z,0.60
2022-09-26T20:23:57.710Z,0.50
2022-09-26T20:26:44.639Z,0.40
2022-09-26T20:29:50.600Z,0.60
2022-09-26T20:32:36.673Z,0.30
2022-09-26T20:35:22.772Z,0.30
2022-09-26T20:38:15.255Z,0.38
2022-09-26T20:41:10.551Z,0.63
2022-09-26T20:44:02.672Z,0.40
2022-09-26T20:46:56.873Z,0.45
2022-09-26T20:49:50.838Z,0.50
2022-09-26T20:52:37.038Z,0.60
2022-09-26T20:55:22.672Z,0.50
2022-09-26T20:58:09.480Z,0.38
2022-09-26T21:00:56.203Z,0.30
2022-09-26T21:03:45.456Z,0.40
2022-09-26T21:06:33.832Z,0.43
2022-09-26T21:09:20.277Z,0.30
2022-09-26T21:12:15.056Z,0.70
2022-09-26T21:15:00.677Z,0.32
2022-09-26T21:17:48.027Z,0.57
2022-09-26T21:20:34.851Z,0.40
2022-09-26T21:23:21.598Z,0.50
2022-09-26T21:26:19.412Z,0.40
2022-09-26T21:29:12.717Z,0.50
2022-09-26T21:32:04.561Z,0.40
2022-09-26T21:35:02.932Z,0.47
2022-09-26T21:37:53.669Z,0.50
2022-09-26T21:40:43.333Z,0.50
2022-09-26T21:43:34.993Z,0.43
2022-09-26T21:46:21.268Z,0.28
2022-09-26T21:49:07.008Z,0.50
2022-09-26T21:51:57.913Z,0.40
2022-09-26T21:54:45.239Z,0.40
2022-09-26T21:57:34.730Z,0.40
2022-09-26T22:00:22.498Z,0.47
2022-09-26T22:03:08.556Z,0.60
2022-09-26T22:05:53.838Z,0.35
2022-09-26T22:08:41.961Z,0.40
2022-09-26T22:11:28.290Z,0.70
2022-09-26T22:14:14.711Z,0.40
2022-09-26T22:17:01.050Z,0.30
2022-09-26T22:19:46.998Z,0.60
2022-09-26T22:22:32.959Z,0.50
2022-09-26T22:25:18.845Z,0.50
2022-09-26T22:28:04.758Z,0.60
2022-09-26T22:30:50.739Z,0.55
2022-09-26T22:33:36.621Z,0.50
2022-09-26T22:36:22.493Z,0.40
2022-09-26T22:39:10.468Z,0.50
2022-09-26T22:41:57.273Z,0.50
2022-09-26T22:44:42.726Z,0.50
2022-09-26T22:47:28.163Z,0.50
2022-09-26T22:50:13.404Z,0.70
2022-09-26T22:52:59.708Z,0.50
2022-09-26T22:55:52.301Z,0.40
2022-09-26T22:58:40.750Z,0.40
2022-09-26T23:01:27.870Z,0.52
2022-09-26T23:04:13.603Z,1.00
2022-09-26T23:06:59.511Z,0.70
2022-09-26T23:09:45.682Z,0.60
2022-09-26T23:12:32.326Z,0.70
2022-09-26T23:15:19.293Z,0.80
2022-09-26T23:18:04.948Z,0.65
2022-09-26T23:20:51.065Z,0.63
2022-09-26T23:23:38.978Z,0.73
2022-09-26T23:26:26.680Z,0.60
2022-09-26T23:29:13.180Z,0.73
2022-09-26T23:31:59.011Z,0.65
2022-09-26T23:34:44.622Z,0.82
2022-09-26T23:37:31.450Z,0.50
2022-09-26T23:40:17.621Z,0.43
2022-09-26T23:43:03.021Z,0.65
2022-09-26T23:45:48.881Z,0.80
2022-09-26T23:48:35.061Z,0.90
2022-09-26T23:51:20.926Z,0.90
2022-09-26T23:54:08.002Z,1.10
2022-09-26T23:56:53.920Z,0.60
2022-09-26T23:59:39.461Z,0.70
